< < Back
Terminal Aerodrome Forecast


Current Version              Previous Versions:   1  2  3  4  5  6  7  8  9  

Terminal Aerodrome Forecast

362
FTUS44 KBMX 252202 AAA
TAFANB
TAF AMD
KANB 252202Z 2522/2618 26010G20KT 4SM TSRA BKN030CB BKN040 OVC250
     FM252330 25004KT P6SM BKN250
      TEMPO 2609/2613 4SM BR
     FM261400 28009KT P6SM SCT250=

Latest METAR

631
SAUS70 KWBC 260800 RRG
MTRANB
METAR KANB 260753Z AUTO 26006KT 9SM CLR 17/16 A2965 RMK AO2 SLP034
T01720161


USA.gov is the U.S. government's official web portal to all federal, state and local government web resources and services.